createdAt,value
2023-11-03T00:00:41.767Z,49.31
2023-11-03T00:01:41.776Z,48.98
2023-11-03T00:02:41.778Z,46.25
2023-11-03T00:03:41.760Z,45.12
2023-11-03T00:04:41.771Z,48.02
2023-11-03T00:05:41.732Z,53.98
2023-11-03T00:06:41.756Z,56.72
2023-11-03T00:07:41.651Z,53.82
2023-11-03T00:08:41.655Z,54.30
2023-11-03T00:09:41.643Z,51.56
2023-11-03T00:10:41.595Z,50.92
2023-11-03T00:11:41.584Z,48.18
2023-11-03T00:12:41.658Z,52.85
2023-11-03T00:13:41.556Z,49.47
2023-11-03T00:14:41.529Z,50.60
2023-11-03T00:15:41.549Z,56.24
2023-11-03T00:16:41.537Z,49.15
2023-11-03T00:17:41.540Z,44.79
2023-11-03T00:18:41.529Z,52.85
2023-11-03T00:19:41.636Z,52.85
2023-11-03T00:20:41.452Z,52.05
2023-11-03T00:21:41.517Z,61.23
2023-11-03T00:22:41.470Z,52.85
2023-11-03T00:23:41.442Z,57.69
2023-11-03T00:24:41.445Z,51.72
2023-11-03T00:25:41.395Z,52.85
2023-11-03T00:26:41.387Z,48.18
2023-11-03T00:27:41.412Z,48.66
2023-11-03T00:28:41.406Z,59.46
2023-11-03T00:29:41.343Z,62.84
2023-11-03T00:30:41.376Z,52.05
2023-11-03T00:31:41.455Z,56.88
2023-11-03T00:32:41.351Z,50.43
2023-11-03T00:33:41.358Z,53.33
2023-11-03T00:34:41.262Z,49.79
2023-11-03T00:35:41.256Z,54.62
2023-11-03T00:36:41.249Z,54.95
2023-11-03T00:37:41.254Z,54.30
2023-11-03T00:38:41.234Z,48.34
2023-11-03T00:39:41.205Z,57.04
2023-11-03T00:40:41.234Z,55.11
2023-11-03T00:41:41.169Z,53.82
2023-11-03T00:42:41.311Z,48.18
2023-11-03T00:43:41.173Z,48.02
2023-11-03T00:44:41.152Z,47.37
2023-11-03T00:45:41.239Z,57.52
2023-11-03T00:46:41.100Z,50.76
2023-11-03T00:47:41.117Z,51.08
2023-11-03T00:48:41.170Z,53.01
2023-11-03T00:49:41.146Z,50.76
2023-11-03T00:50:41.068Z,48.82
2023-11-03T00:51:41.090Z,48.34
2023-11-03T00:52:41.033Z,50.60
2023-11-03T00:53:41.053Z,59.94
2023-11-03T00:54:41.138Z,46.57
2023-11-03T00:55:41.041Z,55.43
2023-11-03T00:56:40.965Z,52.05
2023-11-03T00:57:41.010Z,47.70
2023-11-03T00:58:40.956Z,52.85
2023-11-03T00:59:40.947Z,52.05
2023-11-03T01:00:40.945Z,48.82
2023-11-03T01:01:40.989Z,48.98
2023-11-03T01:02:40.947Z,48.82
2023-11-03T01:03:41.063Z,49.79
2023-11-03T01:04:40.940Z,55.27
2023-11-03T01:05:40.851Z,52.05
2023-11-03T01:06:40.874Z,57.36
2023-11-03T01:07:40.849Z,55.43
2023-11-03T01:08:40.836Z,48.66
2023-11-03T01:09:40.827Z,49.31
2023-11-03T01:10:40.776Z,51.56
2023-11-03T01:11:40.846Z,48.34
2023-11-03T01:12:40.821Z,52.37
2023-11-03T01:13:40.762Z,53.66
2023-11-03T01:14:40.732Z,47.05
2023-11-03T01:15:40.765Z,44.63
2023-11-03T01:16:40.694Z,56.88
2023-11-03T01:17:41.845Z,46.73
2023-11-03T01:18:40.803Z,55.75
2023-11-03T01:19:40.733Z,55.91
2023-11-03T01:20:40.682Z,54.79
2023-11-03T01:21:41.028Z,49.63
2023-11-03T01:22:40.630Z,52.69
2023-11-03T01:23:40.626Z,50.27
2023-11-03T01:24:40.609Z,54.14
2023-11-03T01:25:40.580Z,52.21
2023-11-03T01:26:40.605Z,53.82
2023-11-03T01:27:41.382Z,48.82
2023-11-03T01:28:40.548Z,46.57
2023-11-03T01:29:40.523Z,43.02
2023-11-03T01:30:40.564Z,49.63
2023-11-03T01:31:40.507Z,50.43
2023-11-03T01:32:40.520Z,45.60
2023-11-03T01:33:40.548Z,49.31
2023-11-03T01:34:40.455Z,49.63
2023-11-03T01:35:40.446Z,53.50
2023-11-03T01:36:40.452Z,45.92
2023-11-03T01:37:40.422Z,46.57
2023-11-03T01:38:40.422Z,47.21
2023-11-03T01:39:40.457Z,51.88
2023-11-03T01:40:40.378Z,57.20
2023-11-03T01:41:40.361Z,54.79
2023-11-03T01:42:40.442Z,52.05
2023-11-03T01:43:40.331Z,56.07
2023-11-03T01:44:41.156Z,51.72
2023-11-03T01:45:40.351Z,49.31
2023-11-03T01:46:40.317Z,47.53
2023-11-03T01:47:40.291Z,57.52
2023-11-03T01:48:40.320Z,47.37
2023-11-03T01:49:40.310Z,53.01
2023-11-03T01:50:40.266Z,48.34
2023-11-03T01:51:40.239Z,48.82
2023-11-03T01:52:40.233Z,49.95
2023-11-03T01:53:40.202Z,48.34
2023-11-03T01:54:40.385Z,51.40
2023-11-03T01:55:40.179Z,47.05
2023-11-03T01:56:40.180Z,48.02
2023-11-03T01:57:40.135Z,49.79
2023-11-03T01:58:40.122Z,46.57
2023-11-03T01:59:40.333Z,47.05
2023-11-03T02:00:40.121Z,50.60
2023-11-03T02:01:40.119Z,54.30
2023-11-03T02:02:40.212Z,53.33
2023-11-03T02:03:40.098Z,51.08
2023-11-03T02:04:40.166Z,53.33
2023-11-03T02:05:40.097Z,51.24
2023-11-03T02:06:40.042Z,58.97
2023-11-03T02:07:40.009Z,55.27
2023-11-03T02:08:40.003Z,49.15
2023-11-03T02:09:40.005Z,55.11
2023-11-03T02:10:40.007Z,54.95
2023-11-03T02:11:39.950Z,48.50
2023-11-03T02:12:39.935Z,51.40
2023-11-03T02:13:39.973Z,48.82
2023-11-03T02:14:39.931Z,48.02
2023-11-03T02:15:39.920Z,62.04
2023-11-03T02:16:39.913Z,52.21
2023-11-03T02:17:39.893Z,49.47
2023-11-03T02:18:39.909Z,54.79
2023-11-03T02:19:39.974Z,49.47
2023-11-03T02:20:39.845Z,48.50
2023-11-03T02:21:39.895Z,51.08
2023-11-03T02:22:39.818Z,50.11
2023-11-03T02:23:39.788Z,50.76
2023-11-03T02:24:39.826Z,55.59
2023-11-03T02:25:39.783Z,54.30
2023-11-03T02:26:39.745Z,49.31
2023-11-03T02:27:39.779Z,48.34
2023-11-03T02:28:39.728Z,57.36
2023-11-03T02:29:39.706Z,46.57
2023-11-03T02:30:39.733Z,46.57
2023-11-03T02:31:39.735Z,44.63
2023-11-03T02:32:39.687Z,56.24
2023-11-03T02:33:39.723Z,58.01
2023-11-03T02:34:39.683Z,45.44
2023-11-03T02:35:39.649Z,46.57
2023-11-03T02:36:39.706Z,48.34
2023-11-03T02:37:39.630Z,53.01
2023-11-03T02:38:39.589Z,50.43
2023-11-03T02:39:39.608Z,46.73
2023-11-03T02:40:39.558Z,48.34
2023-11-03T02:41:39.570Z,48.50
2023-11-03T02:42:39.578Z,47.21
2023-11-03T02:43:39.573Z,50.11
2023-11-03T02:44:39.510Z,48.82
2023-11-03T02:45:39.524Z,56.56
2023-11-03T02:46:39.480Z,52.21
2023-11-03T02:47:39.540Z,46.08
2023-11-03T02:48:39.577Z,50.92
2023-11-03T02:49:39.466Z,47.53
2023-11-03T02:50:39.426Z,56.56
2023-11-03T02:51:40.098Z,60.91
2023-11-03T02:52:39.385Z,54.30
2023-11-03T02:53:39.375Z,45.76
2023-11-03T02:54:39.405Z,51.56
2023-11-03T02:55:39.510Z,51.24
2023-11-03T02:56:39.328Z,49.79
2023-11-03T02:57:39.333Z,51.24
2023-11-03T02:58:39.313Z,52.69
2023-11-03T02:59:39.326Z,48.66
2023-11-03T03:00:39.350Z,45.12
2023-11-03T03:01:39.284Z,45.44
2023-11-03T03:02:39.283Z,47.05
2023-11-03T03:03:39.292Z,52.37
2023-11-03T03:04:39.267Z,48.50
2023-11-03T03:05:39.324Z,47.53
2023-11-03T03:06:39.342Z,47.05
2023-11-03T03:07:39.186Z,45.60
2023-11-03T03:08:39.188Z,49.63
2023-11-03T03:09:39.199Z,47.21
2023-11-03T03:10:39.148Z,49.95
2023-11-03T03:11:39.150Z,49.15
2023-11-03T03:12:39.192Z,46.57
2023-11-03T03:13:39.115Z,46.89
2023-11-03T03:14:39.097Z,44.79
2023-11-03T03:15:39.077Z,48.02
2023-11-03T03:16:39.105Z,44.63
2023-11-03T03:17:39.063Z,55.91
2023-11-03T03:18:39.146Z,53.33
2023-11-03T03:19:39.023Z,49.31
2023-11-03T03:20:39.007Z,45.12
2023-11-03T03:21:39.016Z,49.63
2023-11-03T03:22:39.011Z,46.89
2023-11-03T03:23:38.990Z,48.34
2023-11-03T03:24:39.021Z,48.18
2023-11-03T03:25:38.946Z,46.73
2023-11-03T03:26:38.921Z,51.88
2023-11-03T03:27:39.062Z,49.15
2023-11-03T03:28:38.919Z,49.95
2023-11-03T03:29:38.894Z,50.60
2023-11-03T03:30:38.883Z,52.69
2023-11-03T03:31:38.858Z,48.66
2023-11-03T03:32:39.035Z,53.82
2023-11-03T03:33:39.069Z,46.08
2023-11-03T03:34:38.882Z,48.18
2023-11-03T03:35:38.797Z,48.34
2023-11-03T03:36:38.828Z,48.82
2023-11-03T03:37:38.817Z,48.50
2023-11-03T03:38:38.802Z,49.95
2023-11-03T03:39:38.786Z,49.31
2023-11-03T03:40:38.738Z,52.85
2023-11-03T03:41:38.851Z,47.05
2023-11-03T03:42:38.770Z,50.27
2023-11-03T03:43:38.749Z,48.98
2023-11-03T03:44:38.696Z,46.89
2023-11-03T03:45:38.714Z,51.08
2023-11-03T03:46:38.716Z,47.37
2023-11-03T03:47:38.672Z,49.95
2023-11-03T03:48:38.721Z,49.47
2023-11-03T03:49:38.659Z,51.08
2023-11-03T03:50:38.611Z,48.98
2023-11-03T03:51:38.729Z,53.17
2023-11-03T03:52:38.573Z,51.88
2023-11-03T03:53:38.569Z,47.05
2023-11-03T03:54:38.560Z,47.37
2023-11-03T03:55:38.549Z,49.31
2023-11-03T03:56:38.504Z,52.37
2023-11-03T03:57:38.502Z,55.43
2023-11-03T03:58:38.488Z,48.66
2023-11-03T03:59:38.473Z,48.18
2023-11-03T04:00:38.665Z,47.37
2023-11-03T04:01:38.435Z,52.37
2023-11-03T04:02:38.492Z,47.86
2023-11-03T04:03:38.436Z,46.08
2023-11-03T04:04:38.455Z,46.57
2023-11-03T04:05:38.452Z,51.56
2023-11-03T04:06:38.375Z,47.37
2023-11-03T04:07:38.364Z,47.53
2023-11-03T04:08:38.349Z,49.47
2023-11-03T04:09:38.350Z,48.02
2023-11-03T04:10:38.342Z,53.33
2023-11-03T04:11:38.314Z,47.53
2023-11-03T04:12:38.311Z,48.34
2023-11-03T04:13:38.313Z,53.33
2023-11-03T04:14:38.287Z,52.05
2023-11-03T04:15:38.246Z,47.86
2023-11-03T04:16:38.261Z,48.50
2023-11-03T04:17:38.252Z,54.30
2023-11-03T04:18:38.237Z,52.05
2023-11-03T04:19:38.248Z,47.86
2023-11-03T04:20:38.203Z,48.18
2023-11-03T04:21:38.171Z,49.31
2023-11-03T04:22:38.207Z,48.66
2023-11-03T04:23:38.184Z,51.56
2023-11-03T04:24:38.163Z,48.18
2023-11-03T04:25:38.136Z,53.66
2023-11-03T04:26:38.123Z,51.24
2023-11-03T04:27:38.110Z,52.69
2023-11-03T04:28:38.092Z,54.95
2023-11-03T04:29:38.072Z,49.79
2023-11-03T04:30:38.051Z,48.18
2023-11-03T04:31:38.045Z,49.31
2023-11-03T04:32:38.088Z,49.95
2023-11-03T04:33:38.057Z,48.98
2023-11-03T04:34:38.096Z,52.37
2023-11-03T04:35:37.995Z,51.24
2023-11-03T04:36:38.010Z,48.66
2023-11-03T04:37:37.997Z,53.98
2023-11-03T04:38:38.000Z,52.37
2023-11-03T04:39:37.926Z,54.14
2023-11-03T04:40:37.938Z,51.08
2023-11-03T04:41:37.903Z,53.33
2023-11-03T04:42:37.901Z,51.08
2023-11-03T04:43:37.870Z,51.24
2023-11-03T04:44:37.876Z,52.05
2023-11-03T04:45:37.851Z,52.85
2023-11-03T04:46:37.830Z,52.05
2023-11-03T04:47:37.874Z,52.69
2023-11-03T04:48:37.812Z,54.79
2023-11-03T04:49:37.774Z,53.98
2023-11-03T04:50:37.823Z,49.95
2023-11-03T04:51:37.763Z,57.52
2023-11-03T04:52:37.769Z,50.43
2023-11-03T04:53:37.741Z,53.01
2023-11-03T04:54:37.744Z,52.85
2023-11-03T04:55:37.773Z,53.17
2023-11-03T04:56:37.715Z,52.37
2023-11-03T04:57:37.706Z,51.24
2023-11-03T04:58:37.717Z,53.98
2023-11-03T04:59:37.665Z,60.91
2023-11-03T05:00:37.648Z,56.07
2023-11-03T05:01:37.641Z,53.82
2023-11-03T05:02:37.617Z,61.07
2023-11-03T05:03:37.735Z,53.33
2023-11-03T05:04:37.586Z,61.23
2023-11-03T05:05:37.584Z,51.56
2023-11-03T05:06:37.592Z,64.13
2023-11-03T05:07:37.528Z,57.52
2023-11-03T05:08:37.526Z,56.07
2023-11-03T05:09:37.517Z,51.08
2023-11-03T05:10:37.578Z,50.43
2023-11-03T05:11:37.490Z,51.24
2023-11-03T05:12:37.497Z,57.85
2023-11-03T05:13:37.450Z,53.66
2023-11-03T05:14:37.464Z,52.85
2023-11-03T05:15:37.458Z,54.14
2023-11-03T05:16:37.435Z,52.85
2023-11-03T05:17:37.468Z,51.88
2023-11-03T05:18:37.408Z,54.30
2023-11-03T05:19:37.411Z,51.24
2023-11-03T05:20:37.388Z,52.21
2023-11-03T05:21:37.343Z,58.01
2023-11-03T05:22:37.327Z,50.76
2023-11-03T05:23:37.346Z,53.33
2023-11-03T05:24:37.328Z,55.91
2023-11-03T05:25:37.281Z,53.82
2023-11-03T05:26:37.337Z,59.62
2023-11-03T05:27:37.276Z,57.52
2023-11-03T05:28:37.277Z,54.79
2023-11-03T05:29:37.244Z,53.82
2023-11-03T05:30:37.229Z,53.82
2023-11-03T05:31:37.199Z,52.05
2023-11-03T05:32:37.234Z,54.30
2023-11-03T05:33:37.238Z,64.29
2023-11-03T05:34:37.278Z,53.01
2023-11-03T05:35:37.149Z,63.33
2023-11-03T05:36:37.130Z,55.11
2023-11-03T05:37:37.125Z,53.17
2023-11-03T05:38:37.120Z,59.30
2023-11-03T05:39:37.097Z,54.95
2023-11-03T05:40:37.134Z,51.40
2023-11-03T05:41:37.065Z,53.50
2023-11-03T05:42:37.047Z,55.27
2023-11-03T05:43:37.053Z,53.50
2023-11-03T05:44:37.076Z,66.87
2023-11-03T05:45:37.018Z,53.50
2023-11-03T05:46:37.008Z,54.14
2023-11-03T05:47:37.105Z,52.85
2023-11-03T05:48:37.059Z,53.82
2023-11-03T05:49:37.068Z,53.33
2023-11-03T05:50:36.999Z,53.17
2023-11-03T05:51:36.931Z,57.20
2023-11-03T05:52:36.936Z,54.14
2023-11-03T05:53:36.906Z,53.82
2023-11-03T05:54:36.906Z,52.85
2023-11-03T05:55:36.885Z,53.33
2023-11-03T05:56:36.875Z,57.04
2023-11-03T05:57:36.877Z,51.88
2023-11-03T05:58:36.834Z,56.07
2023-11-03T05:59:36.825Z,52.21
2023-11-03T06:00:36.809Z,58.49
2023-11-03T06:01:36.801Z,56.07
2023-11-03T06:02:36.843Z,52.53
2023-11-03T06:03:36.916Z,51.72
2023-11-03T06:04:36.869Z,54.95
2023-11-03T06:05:36.736Z,67.51
2023-11-03T06:06:36.759Z,57.04
2023-11-03T06:07:36.712Z,55.59
2023-11-03T06:08:36.698Z,52.85
2023-11-03T06:09:36.685Z,57.36
2023-11-03T06:10:36.670Z,54.79
2023-11-03T06:11:36.670Z,53.50
2023-11-03T06:12:36.694Z,53.50
2023-11-03T06:13:36.626Z,56.72
2023-11-03T06:14:36.622Z,59.78
2023-11-03T06:15:36.631Z,53.98
2023-11-03T06:16:36.714Z,54.30
2023-11-03T06:17:36.617Z,52.85
2023-11-03T06:18:36.604Z,67.19
2023-11-03T06:19:36.613Z,55.27
2023-11-03T06:20:36.568Z,53.17
2023-11-03T06:21:36.510Z,52.53
2023-11-03T06:22:36.506Z,60.91
2023-11-03T06:23:36.500Z,55.43
2023-11-03T06:24:36.510Z,53.17
2023-11-03T06:25:36.480Z,65.58
2023-11-03T06:26:36.462Z,53.82
2023-11-03T06:27:36.445Z,53.82
2023-11-03T06:28:36.426Z,58.97
2023-11-03T06:29:36.493Z,53.82
2023-11-03T06:30:36.466Z,55.59
2023-11-03T06:31:37.251Z,62.04
2023-11-03T06:32:36.401Z,63.97
2023-11-03T06:33:36.353Z,54.95
2023-11-03T06:34:36.484Z,58.49
2023-11-03T06:35:36.350Z,56.24
2023-11-03T06:36:44.344Z,53.33
2023-11-03T06:37:37.323Z,54.30
2023-11-03T06:38:36.302Z,58.17
2023-11-03T06:39:36.289Z,55.75
2023-11-03T06:40:36.281Z,54.79
2023-11-03T06:41:36.249Z,56.24
2023-11-03T06:42:36.248Z,54.79
2023-11-03T06:43:36.247Z,54.46
2023-11-03T06:44:36.233Z,55.27
2023-11-03T06:45:36.197Z,69.29
2023-11-03T06:46:36.166Z,61.07
2023-11-03T06:47:36.176Z,55.11
2023-11-03T06:48:36.175Z,54.46
2023-11-03T06:49:36.247Z,53.33
2023-11-03T06:50:36.139Z,53.50
2023-11-03T06:51:36.121Z,54.79
2023-11-03T06:52:36.223Z,60.59
2023-11-03T06:53:36.111Z,58.33
2023-11-03T06:54:36.078Z,57.69
2023-11-03T06:55:36.111Z,55.59
2023-11-03T06:56:36.058Z,57.20
2023-11-03T06:57:36.063Z,64.13
2023-11-03T06:58:36.203Z,59.94
2023-11-03T06:59:36.025Z,55.59
2023-11-03T07:00:36.668Z,61.39
2023-11-03T07:01:35.961Z,53.33
2023-11-03T07:02:36.941Z,54.30
2023-11-03T07:03:36.047Z,54.62
2023-11-03T07:04:35.970Z,55.27
2023-11-03T07:05:35.924Z,53.82
2023-11-03T07:06:35.962Z,53.66
2023-11-03T07:07:35.911Z,53.01
2023-11-03T07:08:35.908Z,53.33
2023-11-03T07:09:35.877Z,54.95
2023-11-03T07:10:35.884Z,52.53
2023-11-03T07:11:35.862Z,57.36
2023-11-03T07:12:35.833Z,52.05
2023-11-03T07:13:35.819Z,58.49
2023-11-03T07:14:35.815Z,53.82
2023-11-03T07:15:35.788Z,62.68
2023-11-03T07:16:35.850Z,61.23
2023-11-03T07:17:35.802Z,64.29
2023-11-03T07:18:35.751Z,54.30
2023-11-03T07:19:35.770Z,55.59
2023-11-03T07:20:35.762Z,53.17
2023-11-03T07:21:35.705Z,53.98
2023-11-03T07:22:35.691Z,53.82
2023-11-03T07:23:35.680Z,53.17
2023-11-03T07:24:35.704Z,55.59
2023-11-03T07:25:35.710Z,54.30
2023-11-03T07:26:35.640Z,55.75
2023-11-03T07:27:35.663Z,54.14
2023-11-03T07:28:35.613Z,52.85
2023-11-03T07:29:35.714Z,52.69
2023-11-03T07:30:35.637Z,52.21
2023-11-03T07:31:35.866Z,54.95
2023-11-03T07:32:35.654Z,54.30
2023-11-03T07:33:35.647Z,52.05
2023-11-03T07:34:35.576Z,55.11
2023-11-03T07:35:35.518Z,65.58
2023-11-03T07:36:35.514Z,55.43
2023-11-03T07:37:35.489Z,52.69
2023-11-03T07:38:35.497Z,54.14
2023-11-03T07:39:35.469Z,51.88
2023-11-03T07:40:35.462Z,51.88
2023-11-03T07:41:35.446Z,54.30
2023-11-03T07:42:35.409Z,60.59
2023-11-03T07:43:35.484Z,58.17
2023-11-03T07:44:35.435Z,53.01
2023-11-03T07:45:35.371Z,51.56
2023-11-03T07:46:35.386Z,51.88
2023-11-03T07:47:35.430Z,53.50
2023-11-03T07:48:35.444Z,55.27
2023-11-03T07:49:35.386Z,54.79
2023-11-03T07:50:35.301Z,53.17
2023-11-03T07:51:35.381Z,55.59
2023-11-03T07:52:35.335Z,54.14
2023-11-03T07:53:35.348Z,53.01
2023-11-03T07:54:35.269Z,54.46
2023-11-03T07:55:35.244Z,52.85
2023-11-03T07:56:36.684Z,55.43
2023-11-03T07:57:35.224Z,61.07
2023-11-03T07:58:35.231Z,58.97
2023-11-03T07:59:35.184Z,61.71
2023-11-03T08:00:35.168Z,53.33
2023-11-03T08:01:35.179Z,53.33
2023-11-03T08:02:35.220Z,53.50
2023-11-03T08:03:36.999Z,53.82
2023-11-03T08:04:35.180Z,57.04
2023-11-03T08:05:35.140Z,56.72
2023-11-03T08:06:35.111Z,55.43
2023-11-03T08:07:35.101Z,54.14
2023-11-03T08:08:35.065Z,54.79
2023-11-03T08:09:35.050Z,51.24
2023-11-03T08:10:35.059Z,52.53
2023-11-03T08:11:35.061Z,60.75
2023-11-03T08:12:35.185Z,52.05
2023-11-03T08:13:35.000Z,53.66
2023-11-03T08:14:35.030Z,51.40
2023-11-03T08:15:34.985Z,52.37
2023-11-03T08:16:35.030Z,55.27
2023-11-03T08:17:34.996Z,52.21
2023-11-03T08:18:34.994Z,61.87
2023-11-03T08:19:34.973Z,57.69
2023-11-03T08:20:34.908Z,53.01
2023-11-03T08:21:34.948Z,52.37
2023-11-03T08:22:34.876Z,63.97
2023-11-03T08:23:34.850Z,56.72
2023-11-03T08:24:34.861Z,68.64
2023-11-03T08:25:34.890Z,50.76
2023-11-03T08:26:34.836Z,51.72
2023-11-03T08:27:34.809Z,52.69
2023-11-03T08:28:34.799Z,54.62
2023-11-03T08:29:34.791Z,53.66
2023-11-03T08:30:34.783Z,53.17
2023-11-03T08:31:34.794Z,52.69
2023-11-03T08:32:34.769Z,52.85
2023-11-03T08:33:34.823Z,63.33
2023-11-03T08:34:34.716Z,52.85
2023-11-03T08:35:34.749Z,57.52
2023-11-03T08:36:34.696Z,57.85
2023-11-03T08:37:34.669Z,55.27
2023-11-03T08:38:34.675Z,56.40
2023-11-03T08:39:34.805Z,54.30
2023-11-03T08:40:34.710Z,60.91
2023-11-03T08:41:34.625Z,55.91
2023-11-03T08:42:34.616Z,53.66
2023-11-03T08:43:34.602Z,56.40
2023-11-03T08:44:34.586Z,57.20
2023-11-03T08:45:34.609Z,58.81
2023-11-03T08:46:34.539Z,58.17
2023-11-03T08:47:34.548Z,56.24
2023-11-03T08:48:34.594Z,55.11
2023-11-03T08:49:34.561Z,54.95
2023-11-03T08:50:34.567Z,56.56
2023-11-03T08:51:34.491Z,64.94
2023-11-03T08:52:34.454Z,72.35
2023-11-03T08:53:34.466Z,69.29
2023-11-03T08:54:34.552Z,77.34
2023-11-03T08:55:34.450Z,69.29
2023-11-03T08:56:34.491Z,70.42
2023-11-03T08:57:34.422Z,75.41
2023-11-03T08:58:34.437Z,74.12
2023-11-03T08:59:34.406Z,72.03
2023-11-03T09:00:34.364Z,69.29
2023-11-03T09:01:34.428Z,64.78
2023-11-03T09:02:34.382Z,72.99
2023-11-03T09:03:34.401Z,70.58
2023-11-03T09:04:34.457Z,67.84
2023-11-03T09:05:34.326Z,69.93
2023-11-03T09:06:34.299Z,72.35
2023-11-03T09:07:34.256Z,72.67
2023-11-03T09:08:34.304Z,71.06
2023-11-03T09:09:34.255Z,70.74
2023-11-03T09:10:34.318Z,68.80
2023-11-03T09:11:35.123Z,57.36
2023-11-03T09:12:34.243Z,55.11
2023-11-03T09:13:34.261Z,56.07
2023-11-03T09:14:34.193Z,51.24
2023-11-03T09:15:39.862Z,55.91
2023-11-03T09:16:35.190Z,53.01
2023-11-03T09:17:34.206Z,50.43
2023-11-03T09:18:34.221Z,53.66
2023-11-03T09:19:34.176Z,62.84
2023-11-03T09:20:34.086Z,52.85
2023-11-03T09:21:34.103Z,54.14
2023-11-03T09:22:36.749Z,52.53
2023-11-03T09:23:34.045Z,51.56
2023-11-03T09:24:34.030Z,65.74
2023-11-03T09:25:34.133Z,52.85
2023-11-03T09:26:34.027Z,52.69
2023-11-03T09:27:34.030Z,63.33
2023-11-03T09:28:34.011Z,51.24
2023-11-03T09:29:33.974Z,62.52
2023-11-03T09:30:33.954Z,54.30
2023-11-03T09:31:33.967Z,52.69
2023-11-03T09:32:33.971Z,54.79
2023-11-03T09:33:33.954Z,53.01
2023-11-03T09:34:33.981Z,51.72
2023-11-03T09:35:34.087Z,54.14
2023-11-03T09:36:33.887Z,52.85
2023-11-03T09:37:33.876Z,59.62
2023-11-03T09:38:33.874Z,64.94
2023-11-03T09:39:34.876Z,51.08
2023-11-03T09:40:33.871Z,54.30
2023-11-03T09:41:33.871Z,55.27
2023-11-03T09:42:33.786Z,53.82
2023-11-03T09:43:33.839Z,52.85
2023-11-03T09:44:33.788Z,50.60
2023-11-03T09:45:33.765Z,59.30
2023-11-03T09:46:33.771Z,54.30
2023-11-03T09:47:33.854Z,56.24
2023-11-03T09:48:33.815Z,52.21
2023-11-03T09:49:33.843Z,65.26
2023-11-03T09:50:33.696Z,54.46
2023-11-03T09:51:33.678Z,54.95
2023-11-03T09:52:33.652Z,53.82
2023-11-03T09:53:33.700Z,54.30
2023-11-03T09:54:33.712Z,53.33
2023-11-03T09:55:33.749Z,52.85
2023-11-03T09:56:33.591Z,62.52
2023-11-03T09:57:33.655Z,52.37
2023-11-03T09:58:33.608Z,53.01
2023-11-03T09:59:34.199Z,57.69
2023-11-03T10:00:33.547Z,52.53
2023-11-03T10:01:33.612Z,54.95
2023-11-03T10:02:33.545Z,54.79
2023-11-03T10:03:33.643Z,57.20
2023-11-03T10:04:33.546Z,53.82
2023-11-03T10:05:33.601Z,63.97
2023-11-03T10:06:33.475Z,61.87
2023-11-03T10:07:33.497Z,61.55
2023-11-03T10:08:33.488Z,55.59
2023-11-03T10:09:33.447Z,63.65
2023-11-03T10:10:33.420Z,60.10
2023-11-03T10:11:33.395Z,59.46
2023-11-03T10:12:33.447Z,63.16
2023-11-03T10:13:33.416Z,54.62
2023-11-03T10:14:33.413Z,54.62
2023-11-03T10:15:33.388Z,57.20
2023-11-03T10:16:33.429Z,59.94
2023-11-03T10:17:33.412Z,65.10
2023-11-03T10:18:33.326Z,57.04
2023-11-03T10:19:33.402Z,62.04
2023-11-03T10:20:33.335Z,54.62
2023-11-03T10:21:33.271Z,72.67
2023-11-03T10:22:33.303Z,58.17
2023-11-03T10:23:33.248Z,61.71
2023-11-03T10:24:33.220Z,64.45
2023-11-03T10:25:33.279Z,63.49
2023-11-03T10:26:33.206Z,60.59
2023-11-03T10:27:33.201Z,56.40
2023-11-03T10:28:33.274Z,55.43
2023-11-03T10:29:33.192Z,73.64
2023-11-03T10:30:33.236Z,58.49
2023-11-03T10:31:33.136Z,59.30
2023-11-03T10:32:33.129Z,71.87
2023-11-03T10:33:33.198Z,54.95
2023-11-03T10:34:33.120Z,58.01
2023-11-03T10:35:33.100Z,64.78
2023-11-03T10:36:33.080Z,58.97
2023-11-03T10:37:33.067Z,60.42
2023-11-03T10:38:33.028Z,58.01
2023-11-03T10:39:33.051Z,54.79
2023-11-03T10:40:33.044Z,53.98
2023-11-03T10:41:33.037Z,65.26
2023-11-03T10:42:32.977Z,64.29
2023-11-03T10:43:33.019Z,64.45
2023-11-03T10:44:33.043Z,58.81
2023-11-03T10:45:33.068Z,65.74
2023-11-03T10:46:33.206Z,67.35
2023-11-03T10:47:33.030Z,68.32
2023-11-03T10:48:32.920Z,64.29
2023-11-03T10:49:33.087Z,71.38
2023-11-03T10:50:32.928Z,68.32
2023-11-03T10:51:32.945Z,67.03
2023-11-03T10:52:32.968Z,63.65
2023-11-03T10:53:32.890Z,75.25
2023-11-03T10:54:32.888Z,61.07
2023-11-03T10:55:32.868Z,66.06
2023-11-03T10:56:48.714Z,54.14
2023-11-03T10:57:39.964Z,52.21
2023-11-03T10:58:33.767Z,53.33
2023-11-03T10:59:34.872Z,57.36
2023-11-03T11:00:32.784Z,57.36
2023-11-03T11:01:32.794Z,51.88
2023-11-03T11:02:32.768Z,55.27
2023-11-03T11:03:32.793Z,54.46
2023-11-03T11:04:32.706Z,57.04
2023-11-03T11:05:32.718Z,63.33
2023-11-03T11:06:32.650Z,55.91
2023-11-03T11:07:32.658Z,54.14
2023-11-03T11:08:32.614Z,57.36
2023-11-03T11:09:32.631Z,53.17
2023-11-03T11:10:32.643Z,58.97
2023-11-03T11:11:33.444Z,62.52
2023-11-03T11:12:32.552Z,57.36
2023-11-03T11:13:32.610Z,65.58
2023-11-03T11:14:32.544Z,55.43
2023-11-03T11:15:32.521Z,63.33
2023-11-03T11:16:32.544Z,61.71
2023-11-03T11:17:33.401Z,64.45
2023-11-03T11:18:32.660Z,61.55
2023-11-03T11:19:32.567Z,72.03
2023-11-03T11:20:38.367Z,60.91
2023-11-03T11:21:33.470Z,56.56
2023-11-03T11:22:32.431Z,61.23
2023-11-03T11:23:32.451Z,63.49
2023-11-03T11:24:34.700Z,65.10
2023-11-03T11:25:32.430Z,58.97
2023-11-03T11:26:35.642Z,56.56
2023-11-03T11:27:32.380Z,56.56
2023-11-03T11:28:32.374Z,54.62
2023-11-03T11:29:32.340Z,56.07
2023-11-03T11:30:32.343Z,53.50
2023-11-03T11:31:32.434Z,56.40
2023-11-03T11:32:32.549Z,54.95
2023-11-03T11:33:32.349Z,55.75
2023-11-03T11:34:32.280Z,58.17
2023-11-03T11:35:32.278Z,62.20
2023-11-03T11:36:32.252Z,61.55
2023-11-03T11:37:32.265Z,55.27
2023-11-03T11:38:32.264Z,62.84
2023-11-03T11:39:32.231Z,66.23
2023-11-03T11:40:32.254Z,57.04
2023-11-03T11:41:32.202Z,60.59
2023-11-03T11:42:32.260Z,54.30
2023-11-03T11:43:41.806Z,58.01
2023-11-03T11:44:33.142Z,67.84
2023-11-03T11:45:32.124Z,66.71
2023-11-03T11:46:32.166Z,76.38
2023-11-03T11:47:32.169Z,59.78
2023-11-03T11:48:32.195Z,66.23
2023-11-03T11:49:32.439Z,64.61
2023-11-03T11:50:32.049Z,67.19
2023-11-03T11:51:32.081Z,67.03
2023-11-03T11:52:32.139Z,71.38
2023-11-03T11:53:32.018Z,67.19
2023-11-03T11:54:31.990Z,66.23
2023-11-03T11:55:32.043Z,69.77
2023-11-03T11:56:32.006Z,59.94
2023-11-03T11:57:31.960Z,60.75
2023-11-03T11:58:31.973Z,64.45
2023-11-03T11:59:31.950Z,70.58
2023-11-03T12:00:31.910Z,67.35
2023-11-03T12:01:31.918Z,63.65
2023-11-03T12:02:31.908Z,64.94
2023-11-03T12:03:35.731Z,64.61
2023-11-03T12:04:31.915Z,67.35
2023-11-03T12:05:31.923Z,71.54
2023-11-03T12:06:31.863Z,69.13
2023-11-03T12:07:31.886Z,67.51
2023-11-03T12:08:31.806Z,64.78
2023-11-03T12:09:31.797Z,69.93
2023-11-03T12:10:31.801Z,60.75
2023-11-03T12:11:31.769Z,66.87
2023-11-03T12:12:31.749Z,73.32
2023-11-03T12:13:31.774Z,59.62
2023-11-03T12:14:31.760Z,65.90
2023-11-03T12:15:31.747Z,57.52
2023-11-03T12:16:31.728Z,66.23
2023-11-03T12:17:31.740Z,65.26
2023-11-03T12:18:31.719Z,66.87
2023-11-03T12:19:31.712Z,63.65
2023-11-03T12:20:31.659Z,66.87
2023-11-03T12:21:31.680Z,65.42
2023-11-03T12:22:31.672Z,59.30
2023-11-03T12:23:31.656Z,63.65
2023-11-03T12:24:31.581Z,59.46
2023-11-03T12:25:31.632Z,58.81
2023-11-03T12:26:31.607Z,56.40
2023-11-03T12:27:31.586Z,60.59
2023-11-03T12:28:31.576Z,60.59
2023-11-03T12:29:31.579Z,63.97
2023-11-03T12:30:31.515Z,63.49
2023-11-03T12:31:31.521Z,67.68
2023-11-03T12:32:31.546Z,62.04
2023-11-03T12:33:31.603Z,59.46
2023-11-03T12:34:31.524Z,61.87
2023-11-03T12:35:31.424Z,64.94
2023-11-03T12:36:31.427Z,63.81
2023-11-03T12:37:31.516Z,60.59
2023-11-03T12:38:31.444Z,65.42
2023-11-03T12:39:31.372Z,67.51
2023-11-03T12:40:31.413Z,75.41
2023-11-03T12:41:31.353Z,61.71
2023-11-03T12:42:31.373Z,57.52
2023-11-03T12:43:31.404Z,66.23
2023-11-03T12:44:31.318Z,60.26
2023-11-03T12:45:31.290Z,65.58
2023-11-03T12:46:31.365Z,64.45
2023-11-03T12:47:31.303Z,72.19
2023-11-03T12:48:31.286Z,62.04
2023-11-03T12:49:31.272Z,68.16
2023-11-03T12:50:31.232Z,68.80
2023-11-03T12:51:31.279Z,64.13
2023-11-03T12:52:31.246Z,75.09